createdAt,value
2018-03-15T00:00:50.260Z,1007.52
2018-03-15T00:01:50.210Z,1007.55
2018-03-15T00:02:50.158Z,1007.56
2018-03-15T00:03:50.108Z,1007.56
2018-03-15T00:04:50.055Z,1007.50
2018-03-15T00:05:50.004Z,1007.53
2018-03-15T00:06:49.953Z,1007.52
2018-03-15T00:07:49.902Z,1007.44
2018-03-15T00:08:49.850Z,1007.44
2018-03-15T00:09:49.797Z,1007.43
2018-03-15T00:10:49.747Z,1007.42
2018-03-15T00:11:49.697Z,1007.45
2018-03-15T00:12:49.646Z,1007.42
2018-03-15T00:13:49.592Z,1007.44
2018-03-15T00:14:49.542Z,1007.44
2018-03-15T00:15:49.492Z,1007.43
2018-03-15T00:16:49.441Z,1007.40
2018-03-15T00:17:49.387Z,1007.43
2018-03-15T00:18:49.338Z,1007.40
2018-03-15T00:19:49.289Z,1007.38
2018-03-15T00:20:49.236Z,1007.40
2018-03-15T00:21:49.188Z,1007.37
2018-03-15T00:22:49.135Z,1007.37
2018-03-15T00:23:49.083Z,1007.32
2018-03-15T00:24:49.029Z,1007.38
2018-03-15T00:25:48.977Z,1007.37
2018-03-15T00:26:48.926Z,1007.35
2018-03-15T00:27:48.875Z,1007.39
2018-03-15T00:28:48.826Z,1007.33
2018-03-15T00:29:48.772Z,1007.34
2018-03-15T00:30:48.721Z,1007.40
2018-03-15T00:31:48.672Z,1007.37
2018-03-15T00:32:48.622Z,1007.34
2018-03-15T00:33:48.568Z,1007.29
2018-03-15T00:34:48.520Z,1007.26
2018-03-15T00:35:48.466Z,1007.24
2018-03-15T00:36:48.415Z,1007.23
2018-03-15T00:37:48.365Z,1007.25
2018-03-15T00:38:48.311Z,1007.21
2018-03-15T00:39:48.267Z,1007.13
2018-03-15T00:40:48.210Z,1007.15
2018-03-15T00:41:48.158Z,1007.16
2018-03-15T00:42:48.107Z,1007.18
2018-03-15T00:43:48.055Z,1007.18
2018-03-15T00:44:48.004Z,1007.19
2018-03-15T00:45:47.953Z,1007.16
2018-03-15T00:46:47.902Z,1007.18
2018-03-15T00:47:47.851Z,1007.17
2018-03-15T00:48:47.800Z,1007.16
2018-03-15T00:49:47.750Z,1007.16
2018-03-15T00:50:47.696Z,1007.13
2018-03-15T00:51:47.696Z,1007.12
2018-03-15T00:52:47.650Z,1007.12
2018-03-15T00:53:47.544Z,1007.13
2018-03-15T00:54:47.491Z,1007.08
2018-03-15T00:55:47.440Z,1007.08
2018-03-15T00:56:47.389Z,1007.04
2018-03-15T00:57:47.340Z,1007.05
2018-03-15T00:58:47.287Z,1007.04
2018-03-15T00:59:47.235Z,1007.05
2018-03-15T01:00:47.184Z,1007.03
2018-03-15T01:01:47.136Z,1007.02
2018-03-15T01:02:47.082Z,1007.07
2018-03-15T01:03:47.030Z,1007.04
2018-03-15T01:04:46.980Z,1007.02
2018-03-15T01:05:46.928Z,1007.06
2018-03-15T01:06:46.876Z,1006.98
2018-03-15T01:07:46.826Z,1007.04
2018-03-15T01:08:46.784Z,1007.02
2018-03-15T01:09:46.722Z,1006.99
2018-03-15T01:10:46.672Z,1007.02
2018-03-15T01:11:46.621Z,1007.02
2018-03-15T01:12:46.568Z,1007.01
2018-03-15T01:13:46.522Z,1007.02
2018-03-15T01:14:46.465Z,1007.00
2018-03-15T01:15:46.418Z,1007.05
2018-03-15T01:16:46.365Z,1006.99
2018-03-15T01:17:46.312Z,1007.01
2018-03-15T01:18:46.260Z,1007.03
2018-03-15T01:19:46.209Z,1007.00
2018-03-15T01:20:46.157Z,1007.02
2018-03-15T01:21:46.107Z,1007.03
2018-03-15T01:22:46.055Z,1007.02
2018-03-15T01:23:46.004Z,1006.97
2018-03-15T01:24:45.955Z,1007.00
2018-03-15T01:25:45.901Z,1006.95
2018-03-15T01:26:45.851Z,1006.94
2018-03-15T01:27:45.799Z,1006.95
2018-03-15T01:28:45.749Z,1006.98
2018-03-15T01:29:45.697Z,1006.87
2018-03-15T01:30:45.645Z,1006.86
2018-03-15T01:31:45.595Z,1006.87
2018-03-15T01:32:45.543Z,1006.86
2018-03-15T01:33:45.491Z,1006.86
2018-03-15T01:34:45.441Z,1006.84
2018-03-15T01:35:45.389Z,1006.88
2018-03-15T01:36:45.340Z,1006.87
2018-03-15T01:37:45.292Z,1006.84
2018-03-15T01:38:45.249Z,1006.80
2018-03-15T01:39:45.185Z,1006.84
2018-03-15T01:40:45.134Z,1006.80
2018-03-15T01:41:45.085Z,1006.78
2018-03-15T01:42:45.031Z,1006.75
2018-03-15T01:43:44.980Z,1006.77
2018-03-15T01:44:44.929Z,1006.77
2018-03-15T01:45:44.877Z,1006.74
2018-03-15T01:46:44.827Z,1006.73
2018-03-15T01:47:44.775Z,1006.71
2018-03-15T01:48:44.731Z,1006.69
2018-03-15T01:49:44.673Z,1006.72
2018-03-15T01:50:44.622Z,1006.72
2018-03-15T01:51:44.571Z,1006.73
2018-03-15T01:52:44.520Z,1006.72
2018-03-15T01:53:44.468Z,1006.70
2018-03-15T01:54:44.416Z,1006.72
2018-03-15T01:55:44.367Z,1006.72
2018-03-15T01:56:44.315Z,1006.68
2018-03-15T01:57:44.268Z,1006.74
2018-03-15T01:58:44.215Z,1006.69
2018-03-15T01:59:44.162Z,1006.64
2018-03-15T02:00:44.111Z,1006.65
2018-03-15T02:01:44.058Z,1006.64
2018-03-15T02:02:44.009Z,1006.62
2018-03-15T02:03:43.957Z,1006.63
2018-03-15T02:04:43.906Z,1006.61
2018-03-15T02:05:43.853Z,1006.57
2018-03-15T02:06:43.803Z,1006.62
2018-03-15T02:07:43.752Z,1006.58
2018-03-15T02:08:43.701Z,1006.55
2018-03-15T02:09:43.649Z,1006.55
2018-03-15T02:10:43.601Z,1006.56
2018-03-15T02:11:43.547Z,1006.55
2018-03-15T02:12:43.496Z,1006.53
2018-03-15T02:13:43.445Z,1006.59
2018-03-15T02:14:43.394Z,1006.56
2018-03-15T02:15:43.348Z,1006.59
2018-03-15T02:16:43.299Z,1006.59
2018-03-15T02:17:43.240Z,1006.62
2018-03-15T02:18:43.188Z,1006.57
2018-03-15T02:19:43.137Z,1006.56
2018-03-15T02:20:43.089Z,1006.54
2018-03-15T02:21:43.034Z,1006.58
2018-03-15T02:22:42.984Z,1006.53
2018-03-15T02:23:42.932Z,1006.50
2018-03-15T02:24:42.881Z,1006.53
2018-03-15T02:25:42.830Z,1006.50
2018-03-15T02:26:42.779Z,1006.52
2018-03-15T02:27:42.727Z,1006.49
2018-03-15T02:28:42.676Z,1006.50
2018-03-15T02:29:42.624Z,1006.51
2018-03-15T02:30:42.574Z,1006.49
2018-03-15T02:31:42.522Z,1006.47
2018-03-15T02:32:42.471Z,1006.48
2018-03-15T02:33:42.419Z,1006.49
2018-03-15T02:34:42.369Z,1006.48
2018-03-15T02:35:42.318Z,1006.49
2018-03-15T02:36:42.267Z,1006.47
2018-03-15T02:37:42.214Z,1006.47
2018-03-15T02:38:42.164Z,1006.47
2018-03-15T02:39:42.112Z,1006.51
2018-03-15T02:40:42.064Z,1006.51
2018-03-15T02:41:42.010Z,1006.49
2018-03-15T02:42:41.959Z,1006.47
2018-03-15T02:43:41.914Z,1006.49
2018-03-15T02:44:41.856Z,1006.47
2018-03-15T02:45:41.804Z,1006.46
2018-03-15T02:46:41.753Z,1006.42
2018-03-15T02:47:41.702Z,1006.41
2018-03-15T02:48:41.653Z,1006.45
2018-03-15T02:49:41.598Z,1006.45
2018-03-15T02:50:41.548Z,1006.46
2018-03-15T02:51:41.498Z,1006.48
2018-03-15T02:52:41.447Z,1006.46
2018-03-15T02:53:41.393Z,1006.46
2018-03-15T02:54:41.342Z,1006.44
2018-03-15T02:55:41.291Z,1006.44
2018-03-15T02:56:41.240Z,1006.43
2018-03-15T02:57:41.188Z,1006.41
2018-03-15T02:58:41.137Z,1006.41
2018-03-15T02:59:41.087Z,1006.39
2018-03-15T03:00:41.034Z,1006.41
2018-03-15T03:01:40.986Z,1006.42
2018-03-15T03:02:40.932Z,1006.45
2018-03-15T03:03:40.880Z,1006.46
2018-03-15T03:04:40.828Z,1006.49
2018-03-15T03:05:40.777Z,1006.48
2018-03-15T03:06:40.726Z,1006.44
2018-03-15T03:07:40.684Z,1006.43
2018-03-15T03:08:40.624Z,1006.43
2018-03-15T03:09:40.572Z,1006.50
2018-03-15T03:10:40.520Z,1006.52
2018-03-15T03:11:40.486Z,1006.53
2018-03-15T03:12:40.418Z,1006.53
2018-03-15T03:13:40.366Z,1006.51
2018-03-15T03:14:40.315Z,1006.51
2018-03-15T03:15:40.263Z,1006.56
2018-03-15T03:16:40.212Z,1006.52
2018-03-15T03:17:40.160Z,1006.51
2018-03-15T03:18:40.109Z,1006.51
2018-03-15T03:19:40.058Z,1006.50
2018-03-15T03:20:40.007Z,1006.51
2018-03-15T03:21:39.954Z,1006.48
2018-03-15T03:22:39.903Z,1006.50
2018-03-15T03:23:39.852Z,1006.50
2018-03-15T03:24:39.804Z,1006.52
2018-03-15T03:25:39.748Z,1006.52
2018-03-15T03:26:39.697Z,1006.63
2018-03-15T03:27:39.646Z,1006.53
2018-03-15T03:28:39.594Z,1006.53
2018-03-15T03:29:39.543Z,1006.56
2018-03-15T03:30:39.491Z,1006.56
2018-03-15T03:31:39.440Z,1006.52
2018-03-15T03:32:39.388Z,1006.52
2018-03-15T03:33:39.335Z,1006.50
2018-03-15T03:34:39.284Z,1006.54
2018-03-15T03:35:39.232Z,1006.51
2018-03-15T03:36:39.182Z,1006.51
2018-03-15T03:37:39.129Z,1006.49
2018-03-15T03:38:39.077Z,1006.52
2018-03-15T03:39:39.026Z,1006.55
2018-03-15T03:40:38.975Z,1006.56
2018-03-15T03:41:38.922Z,1006.53
2018-03-15T03:42:38.871Z,1006.54
2018-03-15T03:43:38.820Z,1006.49
2018-03-15T03:44:38.777Z,1006.51
2018-03-15T03:45:38.716Z,1006.48
2018-03-15T03:46:38.665Z,1006.49
2018-03-15T03:47:38.612Z,1006.44
2018-03-15T03:48:38.564Z,1006.41
2018-03-15T03:49:38.509Z,1006.41
2018-03-15T03:50:38.457Z,1006.41
2018-03-15T03:51:38.408Z,1006.39
2018-03-15T03:52:38.354Z,1006.37
2018-03-15T03:53:38.302Z,1006.37
2018-03-15T03:54:38.249Z,1006.39
2018-03-15T03:55:38.199Z,1006.38
2018-03-15T03:56:38.147Z,1006.37
2018-03-15T03:57:38.094Z,1006.40
2018-03-15T03:58:38.043Z,1006.36
2018-03-15T03:59:37.991Z,1006.35
2018-03-15T04:00:37.940Z,1006.35
2018-03-15T04:01:37.889Z,1006.33
2018-03-15T04:02:37.836Z,1006.33
2018-03-15T04:03:37.784Z,1006.34
2018-03-15T04:04:37.733Z,1006.33
2018-03-15T04:05:37.680Z,1006.38
2018-03-15T04:06:37.628Z,1006.38
2018-03-15T04:07:37.577Z,1006.39
2018-03-15T04:08:37.526Z,1006.40
2018-03-15T04:09:37.473Z,1006.38
2018-03-15T04:10:37.421Z,1006.36
2018-03-15T04:11:37.370Z,1006.38
2018-03-15T04:12:37.318Z,1006.43
2018-03-15T04:13:37.266Z,1006.41
2018-03-15T04:14:37.215Z,1006.41
2018-03-15T04:15:37.162Z,1006.41
2018-03-15T04:16:37.116Z,1006.39
2018-03-15T04:17:37.060Z,1006.36
2018-03-15T04:18:37.007Z,1006.37
2018-03-15T04:19:36.957Z,1006.36
2018-03-15T04:20:36.905Z,1006.38
2018-03-15T04:21:36.860Z,1006.36
2018-03-15T04:22:36.801Z,1006.38
2018-03-15T04:23:36.754Z,1006.36
2018-03-15T04:24:36.699Z,1006.39
2018-03-15T04:25:36.646Z,1006.33
2018-03-15T04:26:36.595Z,1006.31
2018-03-15T04:27:36.543Z,1006.33
2018-03-15T04:28:36.493Z,1006.31
2018-03-15T04:29:36.440Z,1006.36
2018-03-15T04:30:36.388Z,1006.26
2018-03-15T04:31:36.337Z,1006.27
2018-03-15T04:32:36.286Z,1006.29
2018-03-15T04:33:36.233Z,1006.25
2018-03-15T04:34:36.184Z,1006.29
2018-03-15T04:35:36.131Z,1006.29
2018-03-15T04:36:36.088Z,1006.32
2018-03-15T04:37:36.030Z,1006.28
2018-03-15T04:38:35.980Z,1006.29
2018-03-15T04:39:35.925Z,1006.30
2018-03-15T04:40:35.874Z,1006.24
2018-03-15T04:41:35.821Z,1006.29
2018-03-15T04:42:35.770Z,1006.20
2018-03-15T04:43:35.718Z,1006.23
2018-03-15T04:44:35.717Z,1006.21
2018-03-15T04:45:35.615Z,1006.16
2018-03-15T04:46:35.564Z,1006.28
2018-03-15T04:47:35.544Z,1006.15
2018-03-15T04:48:35.460Z,1006.17
2018-03-15T04:49:35.408Z,1006.13
2018-03-15T04:50:35.356Z,1006.21
2018-03-15T04:51:35.303Z,1006.21
2018-03-15T04:52:35.253Z,1006.27
2018-03-15T04:53:35.201Z,1006.18
2018-03-15T04:54:35.149Z,1006.16
2018-03-15T04:55:35.100Z,1006.18
2018-03-15T04:56:35.046Z,1006.15
2018-03-15T04:57:34.994Z,1006.18
2018-03-15T04:58:35.004Z,1006.21
2018-03-15T04:59:34.894Z,1006.19
2018-03-15T05:00:34.839Z,1006.23
2018-03-15T05:01:34.787Z,1006.24
2018-03-15T05:02:34.736Z,1006.26
2018-03-15T05:03:34.684Z,1006.23
2018-03-15T05:04:34.632Z,1006.23
2018-03-15T05:05:34.580Z,1006.25
2018-03-15T05:06:34.529Z,1006.30
2018-03-15T05:07:34.480Z,1006.26
2018-03-15T05:08:34.426Z,1006.27
2018-03-15T05:09:34.372Z,1006.26
2018-03-15T05:10:34.322Z,1006.23
2018-03-15T05:11:34.273Z,1006.26
2018-03-15T05:12:34.232Z,1006.21
2018-03-15T05:13:34.166Z,1006.26
2018-03-15T05:14:34.114Z,1006.28
2018-03-15T05:15:34.063Z,1006.29
2018-03-15T05:16:34.011Z,1006.27
2018-03-15T05:17:33.959Z,1006.30
2018-03-15T05:18:33.907Z,1006.25
2018-03-15T05:19:33.856Z,1006.24
2018-03-15T05:20:33.804Z,1006.24
2018-03-15T05:21:33.755Z,1006.31
2018-03-15T05:22:33.700Z,1006.30
2018-03-15T05:23:33.648Z,1006.31
2018-03-15T05:24:33.597Z,1006.28
2018-03-15T05:25:33.544Z,1006.23
2018-03-15T05:26:33.492Z,1006.25
2018-03-15T05:27:33.445Z,1006.27
2018-03-15T05:28:33.444Z,1006.23
2018-03-15T05:29:33.336Z,1006.23
2018-03-15T05:30:33.284Z,1006.22
2018-03-15T05:31:33.234Z,1006.21
2018-03-15T05:32:33.181Z,1006.21
2018-03-15T05:33:33.131Z,1006.26
2018-03-15T05:34:33.076Z,1006.21
2018-03-15T05:35:33.024Z,1006.25
2018-03-15T05:36:32.973Z,1006.22
2018-03-15T05:37:32.926Z,1006.19
2018-03-15T05:38:32.868Z,1006.23
2018-03-15T05:39:32.816Z,1006.19
2018-03-15T05:40:32.764Z,1006.18
2018-03-15T05:41:32.712Z,1006.19
2018-03-15T05:42:32.664Z,1006.21
2018-03-15T05:43:32.608Z,1006.22
2018-03-15T05:44:32.556Z,1006.21
2018-03-15T05:45:32.510Z,1006.22
2018-03-15T05:46:32.451Z,1006.17
2018-03-15T05:47:32.407Z,1006.17
2018-03-15T05:48:32.348Z,1006.17
2018-03-15T05:49:32.295Z,1006.18
2018-03-15T05:50:32.243Z,1006.16
2018-03-15T05:51:32.191Z,1006.23
2018-03-15T05:52:32.138Z,1006.22
2018-03-15T05:53:32.085Z,1006.23
2018-03-15T05:54:32.034Z,1006.24
2018-03-15T05:55:31.982Z,1006.33
2018-03-15T05:56:31.929Z,1006.32
2018-03-15T05:57:31.879Z,1006.30
2018-03-15T05:58:31.825Z,1006.25
2018-03-15T05:59:31.773Z,1006.31
2018-03-15T06:00:31.721Z,1006.31
2018-03-15T06:01:31.668Z,1006.33
2018-03-15T06:02:31.615Z,1006.31
2018-03-15T06:03:31.569Z,1006.37
2018-03-15T06:04:31.512Z,1006.32
2018-03-15T06:05:31.459Z,1006.36
2018-03-15T06:06:31.407Z,1006.31
2018-03-15T06:07:31.409Z,1006.29
2018-03-15T06:08:31.303Z,1006.32
2018-03-15T06:09:31.249Z,1006.32
2018-03-15T06:10:31.198Z,1006.36
2018-03-15T06:11:31.146Z,1006.33
2018-03-15T06:12:31.093Z,1006.29
2018-03-15T06:13:31.041Z,1006.28
2018-03-15T06:14:30.989Z,1006.31
2018-03-15T06:15:30.937Z,1006.28
2018-03-15T06:16:30.888Z,1006.34
2018-03-15T06:17:30.832Z,1006.31
2018-03-15T06:18:30.782Z,1006.31
2018-03-15T06:19:30.727Z,1006.34
2018-03-15T06:20:30.678Z,1006.31
2018-03-15T06:21:30.623Z,1006.30
2018-03-15T06:22:30.571Z,1006.32
2018-03-15T06:23:30.518Z,1006.30
2018-03-15T06:24:30.567Z,1006.39
2018-03-15T06:25:30.414Z,1006.38
2018-03-15T06:26:30.367Z,1006.34
2018-03-15T06:27:30.310Z,1006.41
2018-03-15T06:28:30.258Z,1006.37
2018-03-15T06:29:30.258Z,1006.49
2018-03-15T06:30:30.152Z,1006.43
2018-03-15T06:31:30.102Z,1006.44
2018-03-15T06:32:30.048Z,1006.40
2018-03-15T06:33:29.995Z,1006.46
2018-03-15T06:34:29.944Z,1006.45
2018-03-15T06:35:29.892Z,1006.45
2018-03-15T06:36:29.840Z,1006.41
2018-03-15T06:37:29.786Z,1006.43
2018-03-15T06:38:29.741Z,1006.42
2018-03-15T06:39:29.683Z,1006.43
2018-03-15T06:40:29.632Z,1006.55
2018-03-15T06:41:29.578Z,1006.51
2018-03-15T06:42:29.527Z,1006.46
2018-03-15T06:43:29.475Z,1006.45
2018-03-15T06:44:29.425Z,1006.54
2018-03-15T06:45:29.371Z,1006.54
2018-03-15T06:46:29.319Z,1006.51
2018-03-15T06:47:29.267Z,1006.57
2018-03-15T06:48:29.215Z,1006.62
2018-03-15T06:49:29.164Z,1006.58
2018-03-15T06:50:29.110Z,1006.65
2018-03-15T06:51:29.058Z,1006.53
2018-03-15T06:52:29.007Z,1006.55
2018-03-15T06:53:28.954Z,1006.56
2018-03-15T06:54:28.902Z,1006.58
2018-03-15T06:55:28.935Z,1006.56
2018-03-15T06:56:28.798Z,1006.58
2018-03-15T06:57:28.744Z,1006.50
2018-03-15T06:58:28.695Z,1006.55
2018-03-15T06:59:28.641Z,1006.57
2018-03-15T07:00:28.589Z,1006.55
2018-03-15T07:01:28.537Z,1006.61
2018-03-15T07:02:28.484Z,1006.61
2018-03-15T07:03:28.432Z,1006.67
2018-03-15T07:04:28.381Z,1006.66
2018-03-15T07:05:28.328Z,1006.68
2018-03-15T07:06:28.276Z,1006.65
2018-03-15T07:07:28.223Z,1006.69
2018-03-15T07:08:28.172Z,1006.62
2018-03-15T07:09:28.119Z,1006.71
2018-03-15T07:10:28.132Z,1006.64
2018-03-15T07:11:28.015Z,1006.61
2018-03-15T07:12:27.964Z,1006.70
2018-03-15T07:13:27.909Z,1006.60
2018-03-15T07:14:27.859Z,1006.62
2018-03-15T07:15:27.807Z,1006.62
2018-03-15T07:16:27.755Z,1006.55
2018-03-15T07:17:27.703Z,1006.62
2018-03-15T07:18:27.650Z,1006.60
2018-03-15T07:19:27.600Z,1006.61
2018-03-15T07:20:27.547Z,1006.60
2018-03-15T07:21:27.495Z,1006.60
2018-03-15T07:22:27.443Z,1006.64
2018-03-15T07:23:27.395Z,1006.67
2018-03-15T07:24:27.339Z,1006.65
2018-03-15T07:25:27.288Z,1006.67
2018-03-15T07:26:27.236Z,1006.64
2018-03-15T07:27:27.183Z,1006.65
2018-03-15T07:28:27.133Z,1006.66
2018-03-15T07:29:27.079Z,1006.67
2018-03-15T07:30:27.080Z,1006.73
2018-03-15T07:31:26.977Z,1006.79
2018-03-15T07:32:26.925Z,1006.69
2018-03-15T07:33:26.873Z,1006.69
2018-03-15T07:34:26.823Z,1006.68
2018-03-15T07:35:26.770Z,1006.65
2018-03-15T07:36:26.718Z,1006.67
2018-03-15T07:37:26.666Z,1006.64
2018-03-15T07:38:26.614Z,1006.69
2018-03-15T07:39:26.588Z,1006.67
2018-03-15T07:40:26.511Z,1006.65
2018-03-15T07:41:26.458Z,1006.60
2018-03-15T07:42:26.407Z,1006.78
2018-03-15T07:43:26.406Z,1006.72
2018-03-15T07:44:26.321Z,1006.71
2018-03-15T07:45:26.252Z,1006.77
2018-03-15T07:46:26.200Z,1006.73
2018-03-15T07:47:26.148Z,1006.81
2018-03-15T07:48:26.097Z,1006.73
2018-03-15T07:51:25.942Z,1006.73
2018-03-15T07:52:25.890Z,1006.77
2018-03-15T07:53:25.837Z,1006.75
2018-03-15T07:54:25.786Z,1006.76
2018-03-15T07:55:25.735Z,1006.78
2018-03-15T07:56:25.683Z,1006.76
2018-03-15T07:57:25.630Z,1006.78
2018-03-15T07:58:25.579Z,1006.79
2018-03-15T07:59:25.527Z,1006.81
2018-03-15T08:00:25.475Z,1006.83
2018-03-15T08:01:25.424Z,1006.77
2018-03-15T08:02:25.372Z,1006.76
2018-03-15T08:03:25.320Z,1006.76
2018-03-15T08:04:25.269Z,1006.74
2018-03-15T08:05:25.217Z,1006.71
2018-03-15T08:06:25.165Z,1006.72
2018-03-15T08:07:25.114Z,1006.76
2018-03-15T08:08:25.062Z,1006.76
2018-03-15T08:09:25.010Z,1006.77
2018-03-15T08:10:24.958Z,1006.73
2018-03-15T08:11:24.918Z,1006.70
2018-03-15T08:12:24.858Z,1006.73
2018-03-15T08:13:24.803Z,1006.67
2018-03-15T08:14:24.750Z,1006.64
2018-03-15T08:15:24.700Z,1006.68
2018-03-15T08:16:24.648Z,1006.65
2018-03-15T08:17:24.596Z,1006.57
2018-03-15T08:18:24.544Z,1006.64
2018-03-15T08:19:24.491Z,1006.66
2018-03-15T08:20:24.441Z,1006.73
2018-03-15T08:21:24.449Z,1006.63
2018-03-15T08:22:24.337Z,1006.63
2018-03-15T08:23:24.285Z,1006.66
2018-03-15T08:24:24.234Z,1006.58
2018-03-15T08:25:24.181Z,1006.60
2018-03-15T08:26:24.129Z,1006.57
2018-03-15T08:27:24.078Z,1006.60
2018-03-15T08:28:24.027Z,1006.66
2018-03-15T08:29:23.976Z,1006.57
2018-03-15T08:30:23.923Z,1006.54
2018-03-15T08:31:23.871Z,1006.50
2018-03-15T08:32:23.818Z,1006.55
2018-03-15T08:33:23.785Z,1006.52
2018-03-15T08:34:23.721Z,1006.55
2018-03-15T08:35:23.664Z,1006.46
2018-03-15T08:36:23.612Z,1006.42
2018-03-15T08:37:23.560Z,1006.44
2018-03-15T08:38:23.509Z,1006.42
2018-03-15T08:39:23.460Z,1006.43
2018-03-15T08:40:23.409Z,1006.40
2018-03-15T08:41:23.354Z,1006.48
2018-03-15T08:42:23.301Z,1006.43
2018-03-15T08:43:23.252Z,1006.45
2018-03-15T08:44:23.200Z,1006.38
2018-03-15T08:45:23.147Z,1006.45
2018-03-15T08:46:23.097Z,1006.44
2018-03-15T08:47:23.044Z,1006.45
2018-03-15T08:48:22.994Z,1006.43
2018-03-15T08:49:22.942Z,1006.45
2018-03-15T08:50:22.891Z,1006.43
2018-03-15T08:51:22.839Z,1006.49
2018-03-15T08:52:22.835Z,1006.45
2018-03-15T08:53:22.739Z,1006.34
2018-03-15T08:54:22.685Z,1006.46
2018-03-15T08:55:22.634Z,1006.40
2018-03-15T08:56:22.583Z,1006.39
2018-03-15T08:57:22.546Z,1006.38
2018-03-15T08:58:22.488Z,1006.36
2018-03-15T08:59:22.433Z,1006.34
2018-03-15T09:00:22.377Z,1006.34
2018-03-15T09:01:22.326Z,1006.42
2018-03-15T09:02:22.274Z,1006.31
2018-03-15T09:03:22.223Z,1006.32
2018-03-15T09:04:22.174Z,1006.26
2018-03-15T09:05:22.125Z,1006.32
2018-03-15T09:06:22.069Z,1006.32
2018-03-15T09:07:22.019Z,1006.38
2018-03-15T09:08:21.968Z,1006.39
2018-03-15T09:09:21.916Z,1006.30
2018-03-15T09:10:21.865Z,1006.28
2018-03-15T09:11:21.815Z,1006.22
2018-03-15T09:12:21.763Z,1006.19
2018-03-15T09:13:21.710Z,1006.27
2018-03-15T09:14:21.660Z,1006.24
2018-03-15T09:15:21.613Z,1006.23
2018-03-15T09:16:21.558Z,1006.23
2018-03-15T09:17:21.519Z,1006.21
2018-03-15T09:18:21.471Z,1006.26
2018-03-15T09:19:21.403Z,1006.31
2018-03-15T09:20:21.354Z,1006.27
2018-03-15T09:21:21.302Z,1006.26
2018-03-15T09:22:21.251Z,1006.17
2018-03-15T09:23:21.200Z,1006.18
2018-03-15T09:24:21.152Z,1006.19
2018-03-15T09:25:21.099Z,1006.12
2018-03-15T09:26:21.048Z,1006.09
2018-03-15T09:27:21.000Z,1006.05
2018-03-15T09:28:20.948Z,1006.13
2018-03-15T09:29:20.896Z,1006.18
2018-03-15T09:30:20.845Z,1006.13
2018-03-15T09:31:20.795Z,1006.17
2018-03-15T09:32:20.744Z,1006.13
2018-03-15T09:33:20.693Z,1006.14
2018-03-15T09:34:20.643Z,1006.07
2018-03-15T09:35:20.592Z,1006.09
2018-03-15T09:36:20.542Z,1006.03
2018-03-15T09:37:20.490Z,1006.01
2018-03-15T09:38:20.440Z,1006.02
2018-03-15T09:39:20.389Z,1005.98
2018-03-15T09:40:20.339Z,1006.01
2018-03-15T09:41:20.287Z,1006.02
2018-03-15T09:42:20.237Z,1006.05
2018-03-15T09:43:20.186Z,1006.04
2018-03-15T09:44:20.135Z,1006.06
2018-03-15T09:45:20.084Z,1006.07
2018-03-15T09:46:20.059Z,1006.08
2018-03-15T09:47:19.983Z,1005.97
2018-03-15T09:48:19.932Z,1005.99
2018-03-15T09:49:19.881Z,1006.02
2018-03-15T09:50:19.835Z,1006.03
2018-03-15T09:51:19.779Z,1006.05
2018-03-15T09:52:19.730Z,1006.02
2018-03-15T09:53:19.734Z,1005.86
2018-03-15T09:54:19.628Z,1006.00
2018-03-15T09:55:19.584Z,1005.97
2018-03-15T09:56:19.528Z,1005.93
2018-03-15T09:57:19.529Z,1005.87
2018-03-15T09:58:19.429Z,1005.88
2018-03-15T09:59:19.375Z,1005.85
2018-03-15T10:00:19.324Z,1005.90
2018-03-15T10:01:19.272Z,1005.81
2018-03-15T10:02:19.224Z,1005.88
2018-03-15T10:03:19.172Z,1005.86
2018-03-15T10:04:19.121Z,1005.81
2018-03-15T10:05:19.073Z,1005.81
2018-03-15T10:06:19.023Z,1005.80
2018-03-15T10:07:18.968Z,1005.79
2018-03-15T10:08:18.919Z,1005.83
2018-03-15T10:09:18.867Z,1005.79
2018-03-15T10:10:18.821Z,1005.78
2018-03-15T10:11:18.767Z,1005.80
2018-03-15T10:12:18.716Z,1005.77
2018-03-15T10:13:18.665Z,1005.76
2018-03-15T10:14:18.613Z,1005.76
2018-03-15T10:15:18.564Z,1005.78
2018-03-15T10:16:18.513Z,1005.78
2018-03-15T10:17:18.470Z,1005.77
2018-03-15T10:18:18.412Z,1005.73
2018-03-15T10:19:18.361Z,1005.71
2018-03-15T10:20:18.310Z,1005.76
2018-03-15T10:21:18.259Z,1005.80
2018-03-15T10:22:18.216Z,1005.82
2018-03-15T10:23:18.157Z,1005.91
2018-03-15T10:24:18.107Z,1005.80
2018-03-15T10:25:26.391Z,1005.84
2018-03-15T10:26:18.005Z,1005.85
2018-03-15T10:27:17.955Z,1005.81
2018-03-15T10:28:17.905Z,1005.80
2018-03-15T10:29:17.857Z,1005.78
2018-03-15T10:30:17.805Z,1005.80
2018-03-15T10:31:17.753Z,1005.79
2018-03-15T10:32:17.702Z,1005.74
2018-03-15T10:33:17.652Z,1005.76
2018-03-15T10:34:17.602Z,1005.75
2018-03-15T10:35:17.552Z,1005.83
2018-03-15T10:36:17.501Z,1005.79
2018-03-15T10:37:17.497Z,1005.77
2018-03-15T10:38:17.400Z,1005.83
2018-03-15T10:39:17.353Z,1005.77
2018-03-15T10:40:17.305Z,1005.80
2018-03-15T10:41:17.249Z,1005.76
2018-03-15T10:42:17.199Z,1005.66
2018-03-15T10:43:17.150Z,1005.72
2018-03-15T10:44:17.099Z,1005.73
2018-03-15T10:45:17.054Z,1005.80
2018-03-15T10:46:16.997Z,1005.72
2018-03-15T10:47:16.949Z,1005.68
2018-03-15T10:48:16.899Z,1005.77
2018-03-15T10:49:16.847Z,1005.69
2018-03-15T10:50:16.801Z,1005.76
2018-03-15T10:51:16.750Z,1005.64
2018-03-15T10:52:16.697Z,1005.62
2018-03-15T10:53:16.647Z,1005.76
2018-03-15T10:54:16.596Z,1005.68
2018-03-15T10:55:16.547Z,1005.60
2018-03-15T10:56:16.501Z,1005.62
2018-03-15T10:57:16.448Z,1005.59
2018-03-15T10:58:16.397Z,1005.57
2018-03-15T10:59:16.348Z,1005.64
2018-03-15T11:00:16.299Z,1005.59
2018-03-15T11:01:16.250Z,1005.65
2018-03-15T11:02:16.200Z,1005.60
2018-03-15T11:03:16.150Z,1005.56
2018-03-15T11:04:16.109Z,1005.53
2018-03-15T11:05:16.051Z,1005.50
2018-03-15T11:06:16.003Z,1005.56
2018-03-15T11:07:15.953Z,1005.52
2018-03-15T11:08:15.904Z,1005.70
2018-03-15T11:09:15.853Z,1005.64
2018-03-15T11:10:15.807Z,1005.71
2018-03-15T11:11:15.770Z,1005.56
2018-03-15T11:12:15.808Z,1005.57
2018-03-15T11:13:15.659Z,1005.67
2018-03-15T11:14:15.610Z,1005.61
2018-03-15T11:15:15.561Z,1005.63
2018-03-15T11:16:15.512Z,1005.59
2018-03-15T11:17:15.462Z,1005.55
2018-03-15T11:18:15.414Z,1005.59
2018-03-15T11:19:15.366Z,1005.57
2018-03-15T11:20:15.317Z,1005.51
2018-03-15T11:21:15.268Z,1005.60
2018-03-15T11:22:15.219Z,1005.54
2018-03-15T11:23:15.170Z,1005.50
2018-03-15T11:24:15.121Z,1005.56
2018-03-15T11:25:15.071Z,1005.70
2018-03-15T11:26:15.024Z,1005.59
2018-03-15T11:27:14.972Z,1005.52
2018-03-15T11:28:14.924Z,1005.52
2018-03-15T11:29:14.874Z,1005.53
2018-03-15T11:30:14.825Z,1005.52
2018-03-15T11:31:14.776Z,1005.51
2018-03-15T11:32:14.728Z,1005.51
2018-03-15T11:33:14.678Z,1005.55
2018-03-15T11:34:14.628Z,1005.55
2018-03-15T11:35:14.578Z,1005.46
2018-03-15T11:36:14.530Z,1005.49
2018-03-15T11:37:14.479Z,1005.37
2018-03-15T11:38:14.431Z,1005.45
2018-03-15T11:39:14.381Z,1005.43
2018-03-15T11:40:14.334Z,1005.43
2018-03-15T11:41:14.282Z,1005.43
2018-03-15T11:42:14.235Z,1005.40
2018-03-15T11:43:14.186Z,1005.44
2018-03-15T11:44:14.136Z,1005.44
2018-03-15T11:45:14.087Z,1005.42
2018-03-15T11:46:14.039Z,1005.39
2018-03-15T11:47:13.992Z,1005.30
2018-03-15T11:48:13.941Z,1005.39
2018-03-15T11:49:13.892Z,1005.44
2018-03-15T11:50:13.843Z,1005.35
2018-03-15T11:51:13.793Z,1005.42
2018-03-15T11:52:13.750Z,1005.41
2018-03-15T11:53:13.745Z,1005.28
2018-03-15T11:54:13.647Z,1005.39
2018-03-15T11:55:13.598Z,1005.33
2018-03-15T11:56:13.602Z,1005.28
2018-03-15T11:57:13.499Z,1005.29
2018-03-15T11:58:13.450Z,1005.24
2018-03-15T11:59:13.401Z,1005.28
2018-03-15T12:00:13.357Z,1005.25
2018-03-15T12:01:13.306Z,1005.26
2018-03-15T12:02:13.254Z,1005.25
2018-03-15T12:03:13.207Z,1005.17
2018-03-15T12:04:13.157Z,1005.09
2018-03-15T12:05:13.213Z,1005.10
2018-03-15T12:06:13.060Z,1005.13
2018-03-15T12:07:13.009Z,1004.97